sensor_id;sensor_type;location;lat;lon;timestamp;temperature;humidity
15609;DHT22;64278;45.642;13.756;2022-12-18T00:09:10;20.50;63.00
15609;DHT22;64278;45.642;13.756;2022-12-18T00:11:36;20.50;63.10
15609;DHT22;64278;45.642;13.756;2022-12-18T00:14:02;20.50;63.20
15609;DHT22;64278;45.642;13.756;2022-12-18T00:16:29;20.50;63.20
15609;DHT22;64278;45.642;13.756;2022-12-18T00:18:57;20.50;63.30
15609;DHT22;64278;45.642;13.756;2022-12-18T00:21:22;20.50;63.40
15609;DHT22;64278;45.642;13.756;2022-12-18T00:23:49;20.50;63.40
15609;DHT22;64278;45.642;13.756;2022-12-18T00:26:19;20.50;63.40
15609;DHT22;64278;45.642;13.756;2022-12-18T00:28:45;20.50;63.40
15609;DHT22;64278;45.642;13.756;2022-12-18T00:31:16;20.40;63.40
15609;DHT22;64278;45.642;13.756;2022-12-18T00:33:42;20.40;63.40
15609;DHT22;64278;45.642;13.756;2022-12-18T00:36:13;20.40;63.50
15609;DHT22;64278;45.642;13.756;2022-12-18T00:38:39;20.40;63.50
15609;DHT22;64278;45.642;13.756;2022-12-18T00:41:06;20.40;63.60
15609;DHT22;64278;45.642;13.756;2022-12-18T00:43:32;20.40;63.60
15609;DHT22;64278;45.642;13.756;2022-12-18T00:45:57;20.40;63.60
15609;DHT22;64278;45.642;13.756;2022-12-18T00:48:23;20.40;63.60
15609;DHT22;64278;45.642;13.756;2022-12-18T00:50:50;20.40;63.60
15609;DHT22;64278;45.642;13.756;2022-12-18T00:53:16;20.40;63.60
15609;DHT22;64278;45.642;13.756;2022-12-18T00:55:42;20.40;63.60
15609;DHT22;64278;45.642;13.756;2022-12-18T00:58:09;20.30;63.70
15609;DHT22;64278;45.642;13.756;2022-12-18T01:00:35;20.30;63.70
15609;DHT22;64278;45.642;13.756;2022-12-18T01:03:00;20.30;63.70
15609;DHT22;64278;45.642;13.756;2022-12-18T01:05:27;20.30;63.70
15609;DHT22;64278;45.642;13.756;2022-12-18T01:07:52;20.30;63.80
15609;DHT22;64278;45.642;13.756;2022-12-18T01:10:18;20.30;63.80
15609;DHT22;64278;45.642;13.756;2022-12-18T01:12:44;20.30;63.80
15609;DHT22;64278;45.642;13.756;2022-12-18T01:15:11;20.30;63.80
15609;DHT22;64278;45.642;13.756;2022-12-18T01:17:37;20.30;63.90
15609;DHT22;64278;45.642;13.756;2022-12-18T01:20:04;20.30;63.90
15609;DHT22;64278;45.642;13.756;2022-12-18T01:22:30;20.20;63.90
15609;DHT22;64278;45.642;13.756;2022-12-18T01:24:55;20.20;63.90
15609;DHT22;64278;45.642;13.756;2022-12-18T01:27:21;20.20;63.90
15609;DHT22;64278;45.642;13.756;2022-12-18T01:29:46;20.20;64.00
15609;DHT22;64278;45.642;13.756;2022-12-18T01:32:12;20.20;64.00
15609;DHT22;64278;45.642;13.756;2022-12-18T01:34:38;20.20;64.00
15609;DHT22;64278;45.642;13.756;2022-12-18T01:37:05;20.20;63.90
15609;DHT22;64278;45.642;13.756;2022-12-18T01:39:31;20.20;63.80
15609;DHT22;64278;45.642;13.756;2022-12-18T01:41:58;20.20;63.90
15609;DHT22;64278;45.642;13.756;2022-12-18T01:52:36;20.20;64.10
15609;DHT22;64278;45.642;13.756;2022-12-18T01:55:04;20.10;64.20
15609;DHT22;64278;45.642;13.756;2022-12-18T01:57:30;20.10;64.30
15609;DHT22;64278;45.642;13.756;2022-12-18T02:00:00;20.10;64.30
15609;DHT22;64278;45.642;13.756;2022-12-18T02:02:28;20.10;64.30
15609;DHT22;64278;45.642;13.756;2022-12-18T02:04:55;20.10;64.30
15609;DHT22;64278;45.642;13.756;2022-12-18T02:15:22;20.10;64.30
15609;DHT22;64278;45.642;13.756;2022-12-18T02:18:07;20.10;64.20
15609;DHT22;64278;45.642;13.756;2022-12-18T02:20:56;20.10;64.30
15609;DHT22;64278;45.642;13.756;2022-12-18T02:24:10;20.10;64.40
15609;DHT22;64278;45.642;13.756;2022-12-18T02:26:15;20.00;64.30
15609;DHT22;64278;45.642;13.756;2022-12-18T02:31:31;20.00;64.40
15609;DHT22;64278;45.642;13.756;2022-12-18T02:34:03;20.00;64.40
15609;DHT22;64278;45.642;13.756;2022-12-18T02:36:32;20.00;64.50
15609;DHT22;64278;45.642;13.756;2022-12-18T02:38:59;20.00;64.50
15609;DHT22;64278;45.642;13.756;2022-12-18T02:41:26;20.00;64.40
15609;DHT22;64278;45.642;13.756;2022-12-18T02:43:56;20.00;64.50
15609;DHT22;64278;45.642;13.756;2022-12-18T02:46:27;20.00;64.30
15609;DHT22;64278;45.642;13.756;2022-12-18T02:49:01;20.00;64.40
15609;DHT22;64278;45.642;13.756;2022-12-18T02:51:55;20.00;64.40
15609;DHT22;64278;45.642;13.756;2022-12-18T02:56:58;20.00;64.50
15609;DHT22;64278;45.642;13.756;2022-12-18T03:00:32;20.00;64.40
15609;DHT22;64278;45.642;13.756;2022-12-18T03:02:54;19.90;64.40
15609;DHT22;64278;45.642;13.756;2022-12-18T03:05:33;19.90;64.50
15609;DHT22;64278;45.642;13.756;2022-12-18T03:08:08;19.90;64.50
15609;DHT22;64278;45.642;13.756;2022-12-18T03:10:41;19.90;64.60
15609;DHT22;64278;45.642;13.756;2022-12-18T03:13:20;19.90;64.60
15609;DHT22;64278;45.642;13.756;2022-12-18T03:15:51;19.90;64.70
15609;DHT22;64278;45.642;13.756;2022-12-18T03:18:40;19.90;64.80
15609;DHT22;64278;45.642;13.756;2022-12-18T03:21:08;19.90;64.80
15609;DHT22;64278;45.642;13.756;2022-12-18T03:23:39;19.90;64.90
15609;DHT22;64278;45.642;13.756;2022-12-18T03:26:08;19.90;65.00
15609;DHT22;64278;45.642;13.756;2022-12-18T03:28:40;19.90;65.00
15609;DHT22;64278;45.642;13.756;2022-12-18T03:31:09;19.90;65.10
15609;DHT22;64278;45.642;13.756;2022-12-18T03:34:21;19.90;65.10
15609;DHT22;64278;45.642;13.756;2022-12-18T03:36:27;19.90;65.10
15609;DHT22;64278;45.642;13.756;2022-12-18T03:38:53;19.90;65.10
15609;DHT22;64278;45.642;13.756;2022-12-18T03:41:30;19.80;65.20
15609;DHT22;64278;45.642;13.756;2022-12-18T03:49:53;19.80;65.20
15609;DHT22;64278;45.642;13.756;2022-12-18T03:52:37;19.80;65.30
15609;DHT22;64278;45.642;13.756;2022-12-18T03:55:05;19.80;65.20
15609;DHT22;64278;45.642;13.756;2022-12-18T03:57:33;19.90;65.30
15609;DHT22;64278;45.642;13.756;2022-12-18T04:00:05;19.90;65.30
15609;DHT22;64278;45.642;13.756;2022-12-18T04:02:32;19.90;65.30
15609;DHT22;64278;45.642;13.756;2022-12-18T04:05:02;19.90;65.30
15609;DHT22;64278;45.642;13.756;2022-12-18T04:07:28;19.80;65.30
15609;DHT22;64278;45.642;13.756;2022-12-18T04:09:56;19.80;65.30
15609;DHT22;64278;45.642;13.756;2022-12-18T04:12:28;19.80;65.30
15609;DHT22;64278;45.642;13.756;2022-12-18T04:14:54;19.80;65.30
15609;DHT22;64278;45.642;13.756;2022-12-18T04:17:20;19.80;65.20
15609;DHT22;64278;45.642;13.756;2022-12-18T04:19:46;19.80;66.00
15609;DHT22;64278;45.642;13.756;2022-12-18T04:22:11;19.80;65.20
15609;DHT22;64278;45.642;13.756;2022-12-18T04:24:37;19.80;65.20
15609;DHT22;64278;45.642;13.756;2022-12-18T04:27:03;19.80;65.20
15609;DHT22;64278;45.642;13.756;2022-12-18T04:29:29;19.80;65.20
15609;DHT22;64278;45.642;13.756;2022-12-18T04:31:54;19.80;65.20
15609;DHT22;64278;45.642;13.756;2022-12-18T04:34:20;19.70;65.10
15609;DHT22;64278;45.642;13.756;2022-12-18T04:36:46;19.80;65.20
15609;DHT22;64278;45.642;13.756;2022-12-18T04:39:12;19.80;65.20
15609;DHT22;64278;45.642;13.756;2022-12-18T04:41:37;19.80;65.20
15609;DHT22;64278;45.642;13.756;2022-12-18T04:44:03;19.80;65.10
15609;DHT22;64278;45.642;13.756;2022-12-18T04:46:29;19.70;65.00
15609;DHT22;64278;45.642;13.756;2022-12-18T04:48:55;19.70;65.00
15609;DHT22;64278;45.642;13.756;2022-12-18T04:51:21;19.70;65.00
15609;DHT22;64278;45.642;13.756;2022-12-18T04:53:47;19.70;64.90
15609;DHT22;64278;45.642;13.756;2022-12-18T04:56:14;19.70;65.00
15609;DHT22;64278;45.642;13.756;2022-12-18T04:58:42;19.70;65.00
15609;DHT22;64278;45.642;13.756;2022-12-18T05:01:09;19.70;65.00
15609;DHT22;64278;45.642;13.756;2022-12-18T05:03:36;19.70;64.90
15609;DHT22;64278;45.642;13.756;2022-12-18T05:06:03;19.70;65.00
15609;DHT22;64278;45.642;13.756;2022-12-18T05:08:29;19.70;65.00
15609;DHT22;64278;45.642;13.756;2022-12-18T05:11:14;19.70;65.00
15609;DHT22;64278;45.642;13.756;2022-12-18T05:13:42;19.70;64.90
15609;DHT22;64278;45.642;13.756;2022-12-18T05:16:07;19.70;64.90
15609;DHT22;64278;45.642;13.756;2022-12-18T05:18:34;19.70;64.90
15609;DHT22;64278;45.642;13.756;2022-12-18T05:21:00;19.70;64.90
15609;DHT22;64278;45.642;13.756;2022-12-18T05:23:26;19.70;64.90
15609;DHT22;64278;45.642;13.756;2022-12-18T05:28:18;19.70;64.80
15609;DHT22;64278;45.642;13.756;2022-12-18T05:30:48;19.70;64.80
15609;DHT22;64278;45.642;13.756;2022-12-18T05:33:14;19.70;64.80
15609;DHT22;64278;45.642;13.756;2022-12-18T05:35:40;19.70;64.80
15609;DHT22;64278;45.642;13.756;2022-12-18T05:38:05;19.70;64.80
15609;DHT22;64278;45.642;13.756;2022-12-18T05:40:31;19.60;64.70
15609;DHT22;64278;45.642;13.756;2022-12-18T05:42:57;19.70;64.70
15609;DHT22;64278;45.642;13.756;2022-12-18T05:45:22;19.70;64.70
15609;DHT22;64278;45.642;13.756;2022-12-18T05:47:48;19.70;64.70
15609;DHT22;64278;45.642;13.756;2022-12-18T05:50:13;19.70;64.70
15609;DHT22;64278;45.642;13.756;2022-12-18T05:52:39;19.70;64.70
15609;DHT22;64278;45.642;13.756;2022-12-18T05:55:05;19.70;64.60
15609;DHT22;64278;45.642;13.756;2022-12-18T05:57:30;19.60;64.60
15609;DHT22;64278;45.642;13.756;2022-12-18T05:59:56;19.70;64.60
15609;DHT22;64278;45.642;13.756;2022-12-18T06:02:22;19.60;64.60
15609;DHT22;64278;45.642;13.756;2022-12-18T06:04:47;19.70;64.60
15609;DHT22;64278;45.642;13.756;2022-12-18T06:07:13;19.60;64.50
15609;DHT22;64278;45.642;13.756;2022-12-18T06:09:39;19.60;64.50
15609;DHT22;64278;45.642;13.756;2022-12-18T06:12:05;19.60;64.50
15609;DHT22;64278;45.642;13.756;2022-12-18T06:14:30;19.60;64.40
15609;DHT22;64278;45.642;13.756;2022-12-18T06:16:56;19.60;64.40
15609;DHT22;64278;45.642;13.756;2022-12-18T06:19:21;19.60;64.40
15609;DHT22;64278;45.642;13.756;2022-12-18T06:21:47;19.60;64.40
15609;DHT22;64278;45.642;13.756;2022-12-18T06:24:14;19.60;64.40
15609;DHT22;64278;45.642;13.756;2022-12-18T06:26:40;19.60;64.30
15609;DHT22;64278;45.642;13.756;2022-12-18T06:29:05;19.60;64.20
15609;DHT22;64278;45.642;13.756;2022-12-18T06:31:31;19.60;64.30
15609;DHT22;64278;45.642;13.756;2022-12-18T06:33:57;19.60;64.30
15609;DHT22;64278;45.642;13.756;2022-12-18T06:36:23;19.60;64.20
15609;DHT22;64278;45.642;13.756;2022-12-18T06:38:49;19.60;64.20
15609;DHT22;64278;45.642;13.756;2022-12-18T06:41:17;19.60;64.20
15609;DHT22;64278;45.642;13.756;2022-12-18T06:43:44;19.60;64.20
15609;DHT22;64278;45.642;13.756;2022-12-18T06:46:10;19.60;64.20
15609;DHT22;64278;45.642;13.756;2022-12-18T06:48:36;19.60;64.20
15609;DHT22;64278;45.642;13.756;2022-12-18T06:51:02;19.60;64.20
15609;DHT22;64278;45.642;13.756;2022-12-18T06:53:28;19.60;64.20
15609;DHT22;64278;45.642;13.756;2022-12-18T06:56:06;19.60;64.20
15609;DHT22;64278;45.642;13.756;2022-12-18T06:58:32;19.60;64.10
15609;DHT22;64278;45.642;13.756;2022-12-18T07:01:02;19.50;64.10
15609;DHT22;64278;45.642;13.756;2022-12-18T07:03:28;19.50;64.10
15609;DHT22;64278;45.642;13.756;2022-12-18T07:05:54;19.50;64.00
15609;DHT22;64278;45.642;13.756;2022-12-18T07:08:20;19.50;64.00
15609;DHT22;64278;45.642;13.756;2022-12-18T07:10:46;19.50;64.00
15609;DHT22;64278;45.642;13.756;2022-12-18T07:13:14;19.50;63.90
15609;DHT22;64278;45.642;13.756;2022-12-18T07:15:40;19.50;63.90
15609;DHT22;64278;45.642;13.756;2022-12-18T07:18:06;19.50;63.90
15609;DHT22;64278;45.642;13.756;2022-12-18T07:20:32;19.50;63.90
15609;DHT22;64278;45.642;13.756;2022-12-18T07:22:57;19.50;63.80
15609;DHT22;64278;45.642;13.756;2022-12-18T07:25:23;19.50;63.80
15609;DHT22;64278;45.642;13.756;2022-12-18T07:27:48;19.50;63.80
15609;DHT22;64278;45.642;13.756;2022-12-18T07:30:14;19.50;63.70
15609;DHT22;64278;45.642;13.756;2022-12-18T07:32:40;19.50;63.70
15609;DHT22;64278;45.642;13.756;2022-12-18T07:35:06;19.50;63.70
15609;DHT22;64278;45.642;13.756;2022-12-18T07:37:31;19.50;63.70
15609;DHT22;64278;45.642;13.756;2022-12-18T07:39:57;19.50;63.60
15609;DHT22;64278;45.642;13.756;2022-12-18T07:42:23;19.40;63.50
15609;DHT22;64278;45.642;13.756;2022-12-18T07:44:58;19.50;63.60
15609;DHT22;64278;45.642;13.756;2022-12-18T07:47:24;19.50;63.60
15609;DHT22;64278;45.642;13.756;2022-12-18T07:49:49;19.50;63.60
15609;DHT22;64278;45.642;13.756;2022-12-18T07:52:15;19.50;63.50
15609;DHT22;64278;45.642;13.756;2022-12-18T07:54:41;19.50;63.60
15609;DHT22;64278;45.642;13.756;2022-12-18T07:57:07;19.40;63.40
15609;DHT22;64278;45.642;13.756;2022-12-18T07:59:33;19.40;63.40
15609;DHT22;64278;45.642;13.756;2022-12-18T08:01:59;19.40;63.40
15609;DHT22;64278;45.642;13.756;2022-12-18T08:04:25;19.50;63.50
15609;DHT22;64278;45.642;13.756;2022-12-18T08:06:51;19.40;63.40
15609;DHT22;64278;45.642;13.756;2022-12-18T08:09:16;19.50;64.20
15609;DHT22;64278;45.642;13.756;2022-12-18T08:11:42;19.40;63.30
15609;DHT22;64278;45.642;13.756;2022-12-18T08:14:08;19.40;63.20
15609;DHT22;64278;45.642;13.756;2022-12-18T08:16:34;19.40;63.20
15609;DHT22;64278;45.642;13.756;2022-12-18T08:19:00;19.40;63.20
15609;DHT22;64278;45.642;13.756;2022-12-18T08:21:27;19.40;63.20
15609;DHT22;64278;45.642;13.756;2022-12-18T08:23:55;19.40;63.20
15609;DHT22;64278;45.642;13.756;2022-12-18T08:26:22;19.40;63.20
15609;DHT22;64278;45.642;13.756;2022-12-18T08:28:48;19.40;63.10
15609;DHT22;64278;45.642;13.756;2022-12-18T08:31:14;19.40;63.10
15609;DHT22;64278;45.642;13.756;2022-12-18T08:33:41;19.40;63.10
15609;DHT22;64278;45.642;13.756;2022-12-18T08:36:08;19.40;63.10
15609;DHT22;64278;45.642;13.756;2022-12-18T08:38:34;19.40;63.10
15609;DHT22;64278;45.642;13.756;2022-12-18T08:41:00;19.40;63.10
15609;DHT22;64278;45.642;13.756;2022-12-18T08:43:27;19.40;63.10
15609;DHT22;64278;45.642;13.756;2022-12-18T08:46:12;19.40;63.20
15609;DHT22;64278;45.642;13.756;2022-12-18T08:48:38;19.40;63.20
15609;DHT22;64278;45.642;13.756;2022-12-18T08:51:03;19.40;63.20
15609;DHT22;64278;45.642;13.756;2022-12-18T08:53:29;19.40;63.20
15609;DHT22;64278;45.642;13.756;2022-12-18T08:55:56;19.40;63.10
15609;DHT22;64278;45.642;13.756;2022-12-18T08:58:22;19.40;63.10
15609;DHT22;64278;45.642;13.756;2022-12-18T09:00:48;19.40;63.10
15609;DHT22;64278;45.642;13.756;2022-12-18T09:03:15;19.40;63.10
15609;DHT22;64278;45.642;13.756;2022-12-18T09:05:41;19.40;63.10
15609;DHT22;64278;45.642;13.756;2022-12-18T09:08:07;19.40;63.00
15609;DHT22;64278;45.642;13.756;2022-12-18T09:10:33;19.40;63.00
15609;DHT22;64278;45.642;13.756;2022-12-18T09:12:59;19.40;63.00
15609;DHT22;64278;45.642;13.756;2022-12-18T09:15:24;19.40;63.00
15609;DHT22;64278;45.642;13.756;2022-12-18T09:17:50;19.40;62.90
15609;DHT22;64278;45.642;13.756;2022-12-18T09:20:18;19.40;62.90
15609;DHT22;64278;45.642;13.756;2022-12-18T09:22:44;19.40;62.90
15609;DHT22;64278;45.642;13.756;2022-12-18T09:25:10;19.30;62.80
15609;DHT22;64278;45.642;13.756;2022-12-18T09:27:35;19.40;62.90
15609;DHT22;64278;45.642;13.756;2022-12-18T09:30:01;19.40;62.80
15609;DHT22;64278;45.642;13.756;2022-12-18T09:32:27;19.30;62.70
15609;DHT22;64278;45.642;13.756;2022-12-18T09:34:52;19.30;62.60
15609;DHT22;64278;45.642;13.756;2022-12-18T09:37:18;19.30;62.40
15609;DHT22;64278;45.642;13.756;2022-12-18T09:39:44;19.30;62.20
15609;DHT22;64278;45.642;13.756;2022-12-18T09:42:20;19.30;62.10
15609;DHT22;64278;45.642;13.756;2022-12-18T09:44:50;19.30;61.90
15609;DHT22;64278;45.642;13.756;2022-12-18T09:47:36;19.30;61.70
15609;DHT22;64278;45.642;13.756;2022-12-18T09:50:21;19.30;61.60
15609;DHT22;64278;45.642;13.756;2022-12-18T09:52:51;19.30;62.20
15609;DHT22;64278;45.642;13.756;2022-12-18T09:55:24;19.30;61.40
15609;DHT22;64278;45.642;13.756;2022-12-18T09:58:00;19.30;61.40
15609;DHT22;64278;45.642;13.756;2022-12-18T10:00:27;19.30;61.30
15609;DHT22;64278;45.642;13.756;2022-12-18T10:02:59;19.30;61.30
15609;DHT22;64278;45.642;13.756;2022-12-18T10:13:53;19.20;53.40
15609;DHT22;64278;45.642;13.756;2022-12-18T10:19:48;18.70;46.10
15609;DHT22;64278;45.642;13.756;2022-12-18T10:27:18;18.60;54.00
15609;DHT22;64278;45.642;13.756;2022-12-18T10:29:46;18.60;54.30
15609;DHT22;64278;45.642;13.756;2022-12-18T10:32:24;18.70;54.60
15609;DHT22;64278;45.642;13.756;2022-12-18T10:34:52;18.70;54.60
15609;DHT22;64278;45.642;13.756;2022-12-18T10:37:20;18.70;54.40
15609;DHT22;64278;45.642;13.756;2022-12-18T10:40:08;18.70;54.40
15609;DHT22;64278;45.642;13.756;2022-12-18T10:42:35;18.70;52.50
15609;DHT22;64278;45.642;13.756;2022-12-18T10:45:05;18.70;52.00
15609;DHT22;64278;45.642;13.756;2022-12-18T10:47:33;18.60;52.00
15609;DHT22;64278;45.642;13.756;2022-12-18T10:49:59;18.60;52.60
15609;DHT22;64278;45.642;13.756;2022-12-18T10:52:26;18.60;53.00
15609;DHT22;64278;45.642;13.756;2022-12-18T10:54:58;18.60;53.10
15609;DHT22;64278;45.642;13.756;2022-12-18T10:59:57;18.60;52.90
15609;DHT22;64278;45.642;13.756;2022-12-18T11:02:37;18.70;53.60
15609;DHT22;64278;45.642;13.756;2022-12-18T11:05:24;18.70;54.00
15609;DHT22;64278;45.642;13.756;2022-12-18T11:07:51;18.70;54.00
15609;DHT22;64278;45.642;13.756;2022-12-18T11:10:20;18.70;54.10
15609;DHT22;64278;45.642;13.756;2022-12-18T11:12:47;18.70;54.20
15609;DHT22;64278;45.642;13.756;2022-12-18T11:15:23;18.80;54.40
15609;DHT22;64278;45.642;13.756;2022-12-18T11:17:51;18.80;54.50
15609;DHT22;64278;45.642;13.756;2022-12-18T11:20:32;18.70;54.50
15609;DHT22;64278;45.642;13.756;2022-12-18T11:23:11;18.80;54.60
15609;DHT22;64278;45.642;13.756;2022-12-18T11:25:38;18.80;54.60
15609;DHT22;64278;45.642;13.756;2022-12-18T11:28:06;18.80;54.80
15609;DHT22;64278;45.642;13.756;2022-12-18T11:31:24;18.80;54.90
15609;DHT22;64278;45.642;13.756;2022-12-18T11:36:38;18.80;55.10
15609;DHT22;64278;45.642;13.756;2022-12-18T11:39:33;18.80;55.20
15609;DHT22;64278;45.642;13.756;2022-12-18T11:50:24;18.80;55.40
15609;DHT22;64278;45.642;13.756;2022-12-18T11:52:51;18.80;55.90
15609;DHT22;64278;45.642;13.756;2022-12-18T12:01:18;18.90;57.70
15609;DHT22;64278;45.642;13.756;2022-12-18T12:09:37;18.90;58.40
15609;DHT22;64278;45.642;13.756;2022-12-18T12:20:25;19.00;59.40
15609;DHT22;64278;45.642;13.756;2022-12-18T12:23:01;19.00;59.50
15609;DHT22;64278;45.642;13.756;2022-12-18T12:25:42;19.00;59.50
15609;DHT22;64278;45.642;13.756;2022-12-18T12:28:28;19.00;59.50
15609;DHT22;64278;45.642;13.756;2022-12-18T12:34:25;19.00;59.30
15609;DHT22;64278;45.642;13.756;2022-12-18T12:39:36;19.00;58.80
15609;DHT22;64278;45.642;13.756;2022-12-18T12:42:05;19.00;58.70
15609;DHT22;64278;45.642;13.756;2022-12-18T12:44:55;19.00;58.70
15609;DHT22;64278;45.642;13.756;2022-12-18T12:47:32;19.00;58.70
15609;DHT22;64278;45.642;13.756;2022-12-18T12:50:02;19.10;58.80
15609;DHT22;64278;45.642;13.756;2022-12-18T12:52:35;19.10;58.80
15609;DHT22;64278;45.642;13.756;2022-12-18T12:55:04;19.10;58.80
15609;DHT22;64278;45.642;13.756;2022-12-18T12:57:41;19.10;58.80
15609;DHT22;64278;45.642;13.756;2022-12-18T13:00:16;19.10;58.90
15609;DHT22;64278;45.642;13.756;2022-12-18T13:03:03;19.10;58.90
15609;DHT22;64278;45.642;13.756;2022-12-18T13:05:54;19.10;59.00
15609;DHT22;64278;45.642;13.756;2022-12-18T13:08:31;19.10;59.10
15609;DHT22;64278;45.642;13.756;2022-12-18T13:10:58;19.20;59.30
15609;DHT22;64278;45.642;13.756;2022-12-18T13:13:54;19.10;59.60
15609;DHT22;64278;45.642;13.756;2022-12-18T13:16:25;19.10;60.10
15609;DHT22;64278;45.642;13.756;2022-12-18T13:18:56;19.20;60.60
15609;DHT22;64278;45.642;13.756;2022-12-18T13:21:28;19.20;61.20
15609;DHT22;64278;45.642;13.756;2022-12-18T13:23:55;19.20;61.60
15609;DHT22;64278;45.642;13.756;2022-12-18T13:28:53;19.20;62.70
15609;DHT22;64278;45.642;13.756;2022-12-18T13:34:23;19.10;61.70
15609;DHT22;64278;45.642;13.756;2022-12-18T13:36:49;19.10;61.60
15609;DHT22;64278;45.642;13.756;2022-12-18T13:41:45;19.10;61.40
15609;DHT22;64278;45.642;13.756;2022-12-18T13:44:34;19.10;61.30
15609;DHT22;64278;45.642;13.756;2022-12-18T13:47:02;19.10;61.20
15609;DHT22;64278;45.642;13.756;2022-12-18T13:49:43;19.10;61.20
15609;DHT22;64278;45.642;13.756;2022-12-18T13:52:18;19.10;61.10
15609;DHT22;64278;45.642;13.756;2022-12-18T13:54:49;19.10;61.10
15609;DHT22;64278;45.642;13.756;2022-12-18T13:57:39;19.10;61.00
15609;DHT22;64278;45.642;13.756;2022-12-18T14:00:32;19.10;61.00
15609;DHT22;64278;45.642;13.756;2022-12-18T14:02:58;19.10;61.00
15609;DHT22;64278;45.642;13.756;2022-12-18T14:05:33;19.10;61.00
15609;DHT22;64278;45.642;13.756;2022-12-18T14:08:08;19.10;60.90
15609;DHT22;64278;45.642;13.756;2022-12-18T14:10:39;19.10;60.90
15609;DHT22;64278;45.642;13.756;2022-12-18T14:13:07;19.00;60.80
15609;DHT22;64278;45.642;13.756;2022-12-18T14:15:44;19.10;60.90
15609;DHT22;64278;45.642;13.756;2022-12-18T14:18:38;19.00;60.80
15609;DHT22;64278;45.642;13.756;2022-12-18T14:21:17;19.00;60.70
15609;DHT22;64278;45.642;13.756;2022-12-18T14:23:43;19.00;60.70
15609;DHT22;64278;45.642;13.756;2022-12-18T14:26:26;19.00;60.70
15609;DHT22;64278;45.642;13.756;2022-12-18T14:28:58;19.00;60.60
15609;DHT22;64278;45.642;13.756;2022-12-18T14:31:28;19.00;60.60
15609;DHT22;64278;45.642;13.756;2022-12-18T14:33:55;19.00;60.60
15609;DHT22;64278;45.642;13.756;2022-12-18T14:36:23;19.00;60.50
15609;DHT22;64278;45.642;13.756;2022-12-18T14:38:51;19.00;60.50
15609;DHT22;64278;45.642;13.756;2022-12-18T14:41:19;19.00;60.40
15609;DHT22;64278;45.642;13.756;2022-12-18T14:43:53;18.90;50.70
15609;DHT22;64278;45.642;13.756;2022-12-18T14:48:56;18.50;50.00
15609;DHT22;64278;45.642;13.756;2022-12-18T14:51:46;18.50;55.10
15609;DHT22;64278;45.642;13.756;2022-12-18T14:54:17;18.50;56.00
15609;DHT22;64278;45.642;13.756;2022-12-18T14:56:46;18.60;56.40
15609;DHT22;64278;45.642;13.756;2022-12-18T14:59:19;18.60;56.70
15609;DHT22;64278;45.642;13.756;2022-12-18T15:04:34;18.70;57.20
15609;DHT22;64278;45.642;13.756;2022-12-18T15:07:19;18.70;57.40
15609;DHT22;64278;45.642;13.756;2022-12-18T15:12:34;18.70;57.90
15609;DHT22;64278;45.642;13.756;2022-12-18T15:15:00;18.80;58.10
15609;DHT22;64278;45.642;13.756;2022-12-18T15:17:26;18.80;58.30
15609;DHT22;64278;45.642;13.756;2022-12-18T15:19:58;18.80;58.40
15609;DHT22;64278;45.642;13.756;2022-12-18T15:22:34;18.80;58.50
15609;DHT22;64278;45.642;13.756;2022-12-18T15:25:01;18.80;58.70
15609;DHT22;64278;45.642;13.756;2022-12-18T15:32:28;18.80;59.00
15609;DHT22;64278;45.642;13.756;2022-12-18T15:37:36;18.80;59.20
15609;DHT22;64278;45.642;13.756;2022-12-18T15:40:03;18.80;59.30
15609;DHT22;64278;45.642;13.756;2022-12-18T15:42:29;18.80;59.30
15609;DHT22;64278;45.642;13.756;2022-12-18T15:45:14;18.70;59.40
15609;DHT22;64278;45.642;13.756;2022-12-18T15:47:40;18.80;59.50
15609;DHT22;64278;45.642;13.756;2022-12-18T15:50:09;18.70;59.50
15609;DHT22;64278;45.642;13.756;2022-12-18T15:52:46;18.70;59.60
15609;DHT22;64278;45.642;13.756;2022-12-18T15:55:23;18.70;59.60
15609;DHT22;64278;45.642;13.756;2022-12-18T15:58:09;18.80;59.80
15609;DHT22;64278;45.642;13.756;2022-12-18T16:00:37;18.70;59.80
15609;DHT22;64278;45.642;13.756;2022-12-18T16:03:04;18.70;59.80
15609;DHT22;64278;45.642;13.756;2022-12-18T16:05:30;18.70;59.90
15609;DHT22;64278;45.642;13.756;2022-12-18T16:07:56;18.70;60.00
15609;DHT22;64278;45.642;13.756;2022-12-18T16:10:22;18.70;60.00
15609;DHT22;64278;45.642;13.756;2022-12-18T16:12:49;18.70;60.10
15609;DHT22;64278;45.642;13.756;2022-12-18T16:15:15;18.70;60.20
15609;DHT22;64278;45.642;13.756;2022-12-18T16:17:42;18.70;60.20
15609;DHT22;64278;45.642;13.756;2022-12-18T16:20:21;18.70;60.20
15609;DHT22;64278;45.642;13.756;2022-12-18T16:22:48;18.70;60.30
15609;DHT22;64278;45.642;13.756;2022-12-18T16:25:34;18.70;60.30
15609;DHT22;64278;45.642;13.756;2022-12-18T16:27:59;18.70;60.30
15609;DHT22;64278;45.642;13.756;2022-12-18T16:30:28;18.70;60.40
15609;DHT22;64278;45.642;13.756;2022-12-18T16:32:54;18.70;60.50
15609;DHT22;64278;45.642;13.756;2022-12-18T16:35:20;18.70;60.50
15609;DHT22;64278;45.642;13.756;2022-12-18T16:37:46;18.70;60.60
15609;DHT22;64278;45.642;13.756;2022-12-18T16:40:14;18.70;60.60
15609;DHT22;64278;45.642;13.756;2022-12-18T16:42:42;18.70;60.70
15609;DHT22;64278;45.642;13.756;2022-12-18T16:45:10;18.70;60.80
15609;DHT22;64278;45.642;13.756;2022-12-18T16:47:37;18.70;60.80
15609;DHT22;64278;45.642;13.756;2022-12-18T16:50:03;18.70;60.80
15609;DHT22;64278;45.642;13.756;2022-12-18T16:52:29;18.70;60.50
15609;DHT22;64278;45.642;13.756;2022-12-18T16:54:55;18.70;60.60
15609;DHT22;64278;45.642;13.756;2022-12-18T16:57:22;18.70;60.60
15609;DHT22;64278;45.642;13.756;2022-12-18T16:59:48;18.70;60.60
15609;DHT22;64278;45.642;13.756;2022-12-18T17:02:22;18.70;60.70
15609;DHT22;64278;45.642;13.756;2022-12-18T17:04:48;18.70;60.60
15609;DHT22;64278;45.642;13.756;2022-12-18T17:07:14;18.70;60.60
15609;DHT22;64278;45.642;13.756;2022-12-18T17:09:40;18.70;60.70
15609;DHT22;64278;45.642;13.756;2022-12-18T17:12:07;18.70;60.70
15609;DHT22;64278;45.642;13.756;2022-12-18T17:14:33;18.70;60.70
15609;DHT22;64278;45.642;13.756;2022-12-18T17:16:59;18.70;60.80
15609;DHT22;64278;45.642;13.756;2022-12-18T17:19:26;18.70;60.90
15609;DHT22;64278;45.642;13.756;2022-12-18T17:21:52;18.70;60.90
15609;DHT22;64278;45.642;13.756;2022-12-18T17:24:18;18.70;61.00
15609;DHT22;64278;45.642;13.756;2022-12-18T17:26:45;18.70;61.10
15609;DHT22;64278;45.642;13.756;2022-12-18T17:29:16;18.70;61.20